createdAt,value
2023-01-26T00:00:06.000Z,0.7
2023-01-26T00:01:23.336Z,0.7
2023-01-26T00:02:39.496Z,0.7
2023-01-26T00:03:55.000Z,0.7
2023-01-26T00:06:27.000Z,0.7
2023-01-26T00:07:44.058Z,0.7
2023-01-26T00:09:00.205Z,0.7
2023-01-26T00:10:16.000Z,0.7
2023-01-26T00:11:32.496Z,0.7
2023-01-26T00:12:47.000Z,0.7
2023-01-26T00:14:03.000Z,0.7
2023-01-26T00:15:19.000Z,0.7
2023-01-26T00:16:35.000Z,0.7
2023-01-26T00:17:52.000Z,0.7
2023-01-26T00:19:08.000Z,0.7
2023-01-26T00:20:24.000Z,0.7
2023-01-26T00:21:40.692Z,0.7
2023-01-26T00:22:56.830Z,0.7
2023-01-26T00:24:12.000Z,0.7
2023-01-26T00:25:29.112Z,0.7
2023-01-26T00:26:45.265Z,0.7
2023-01-26T00:28:01.426Z,0.7
2023-01-26T00:29:16.000Z,0.7
2023-01-26T00:30:32.728Z,0.7
2023-01-26T00:31:48.000Z,0.7
2023-01-26T00:33:04.000Z,0.7
2023-01-26T00:34:21.148Z,0.7
2023-01-26T00:35:37.000Z,0.7
2023-01-26T00:36:53.438Z,0.7
2023-01-26T00:38:09.000Z,0.7
2023-01-26T00:39:25.744Z,0.7
2023-01-26T00:40:41.882Z,0.7
2023-01-26T00:41:58.022Z,0.7
2023-01-26T00:43:14.170Z,0.8
2023-01-26T00:44:30.000Z,0.8
2023-01-26T00:45:45.000Z,0.8
2023-01-26T00:47:01.000Z,0.8
2023-01-26T00:48:17.782Z,0.8
2023-01-26T00:49:33.914Z,0.8
2023-01-26T00:50:49.000Z,0.8
2023-01-26T00:52:06.215Z,0.8
2023-01-26T00:53:22.000Z,0.8
2023-01-26T00:54:38.000Z,0.8
2023-01-26T00:55:54.000Z,0.8
2023-01-26T00:57:10.000Z,0.8
2023-01-26T00:58:26.932Z,0.8
2023-01-26T00:59:43.106Z,0.9
2023-01-26T01:00:59.404Z,0.9
2023-01-26T01:02:14.394Z,0.9
2023-01-26T01:03:30.556Z,0.9
2023-01-26T01:04:46.000Z,0.9
2023-01-26T01:06:02.823Z,0.9
2023-01-26T01:07:18.000Z,0.9
2023-01-26T01:08:34.141Z,0.9
2023-01-26T01:09:50.000Z,0.9
2023-01-26T01:11:06.000Z,0.9
2023-01-26T01:12:22.600Z,0.9
2023-01-26T01:13:38.735Z,0.9
2023-01-26T01:14:54.879Z,0.9
2023-01-26T01:16:11.012Z,0.9
2023-01-26T01:17:27.168Z,0.9
2023-01-26T01:18:43.000Z,0.9
2023-01-26T01:19:59.465Z,0.9
2023-01-26T01:21:15.602Z,1
2023-01-26T01:22:31.000Z,1
2023-01-26T01:23:47.000Z,1
2023-01-26T01:25:03.061Z,1
2023-01-26T01:26:18.000Z,1
2023-01-26T01:27:35.000Z,1
2023-01-26T01:28:51.506Z,1
2023-01-26T01:30:07.000Z,1
2023-01-26T01:31:23.789Z,1
2023-01-26T01:32:39.945Z,1
2023-01-26T01:33:56.077Z,1
2023-01-26T01:35:11.000Z,1
2023-01-26T01:36:28.376Z,1
2023-01-26T01:37:44.518Z,1
2023-01-26T01:39:00.715Z,1
2023-01-26T01:40:16.000Z,1
2023-01-26T01:41:31.973Z,1
2023-01-26T01:42:47.000Z,1
2023-01-26T01:44:04.260Z,1
2023-01-26T01:45:20.402Z,1
2023-01-26T01:46:36.557Z,1
2023-01-26T01:47:52.712Z,1
2023-01-26T01:49:08.843Z,1
2023-01-26T01:50:24.996Z,1
2023-01-26T01:51:40.000Z,1
2023-01-26T01:52:57.287Z,1
2023-01-26T01:54:13.442Z,1
2023-01-26T01:55:29.657Z,1
2023-01-26T01:56:45.724Z,1
2023-01-26T01:58:00.000Z,1
2023-01-26T01:59:17.032Z,1
2023-01-26T02:00:32.000Z,1
2023-01-26T02:01:49.321Z,1
2023-01-26T02:03:05.585Z,1
2023-01-26T02:04:21.611Z,1
2023-01-26T02:05:37.762Z,1
2023-01-26T02:06:53.896Z,1
2023-01-26T02:08:10.048Z,1
2023-01-26T02:09:26.207Z,1
2023-01-26T02:10:42.000Z,1
2023-01-26T02:11:58.494Z,1
2023-01-26T02:13:14.000Z,1
2023-01-26T02:14:29.802Z,1
2023-01-26T02:15:45.941Z,1
2023-01-26T02:17:02.100Z,1
2023-01-26T02:18:18.000Z,1
2023-01-26T02:19:34.384Z,1
2023-01-26T02:20:50.522Z,1
2023-01-26T02:22:06.684Z,1.1
2023-01-26T02:23:22.000Z,1.1
2023-01-26T02:24:38.968Z,1.1
2023-01-26T02:25:54.000Z,1.1
2023-01-26T02:27:11.256Z,1.1
2023-01-26T02:28:27.000Z,1.1
2023-01-26T02:29:43.549Z,1.1
2023-01-26T02:30:58.000Z,1.1
2023-01-26T02:32:14.000Z,1.1
2023-01-26T02:33:30.000Z,1.1
2023-01-26T02:34:47.141Z,1.1
2023-01-26T02:36:03.299Z,1.1
2023-01-26T02:37:19.493Z,1.1
2023-01-26T02:38:35.000Z,1.1
2023-01-26T02:39:51.740Z,1.1
2023-01-26T02:41:07.000Z,1.1
2023-01-26T02:42:24.023Z,1.1
2023-01-26T02:43:40.177Z,1.1
2023-01-26T02:44:56.336Z,1.1
2023-01-26T02:46:12.458Z,1.1
2023-01-26T02:47:27.629Z,1.1
2023-01-26T02:48:43.000Z,1.1
2023-01-26T02:49:59.906Z,1.1
2023-01-26T02:51:15.000Z,1.1
2023-01-26T02:52:32.204Z,1.1
2023-01-26T02:53:48.361Z,1.1
2023-01-26T02:55:04.488Z,1.1
2023-01-26T02:56:20.644Z,1.1
2023-01-26T02:57:36.790Z,1.1
2023-01-26T02:58:52.932Z,1.1
2023-01-26T03:00:09.085Z,1.1
2023-01-26T03:01:24.000Z,1.1
2023-01-26T03:02:41.372Z,1.1
2023-01-26T03:03:56.530Z,1.1
2023-01-26T03:05:12.680Z,1.1
2023-01-26T03:06:28.824Z,1.1
2023-01-26T03:07:44.978Z,1.1
2023-01-26T03:09:01.113Z,1.1
2023-01-26T03:10:17.265Z,1.1
2023-01-26T03:11:33.400Z,1.1
2023-01-26T03:12:49.552Z,1.1
2023-01-26T03:14:05.000Z,1.1
2023-01-26T03:15:21.844Z,1.1
2023-01-26T03:16:38.000Z,1.1
2023-01-26T03:17:54.133Z,1.1
2023-01-26T03:19:10.296Z,1.1
2023-01-26T03:20:25.457Z,1.1
2023-01-26T03:21:41.601Z,1.1
2023-01-26T03:22:57.734Z,1.1
2023-01-26T03:24:13.888Z,1.1
2023-01-26T03:25:30.022Z,1.1
2023-01-26T03:26:45.000Z,1.1
2023-01-26T03:28:02.332Z,1.1
2023-01-26T03:29:18.000Z,1.1
2023-01-26T03:30:34.619Z,1.1
2023-01-26T03:31:50.752Z,1.1
2023-01-26T03:33:06.903Z,1.1
2023-01-26T03:34:23.060Z,1.1
2023-01-26T03:35:39.190Z,1.1
2023-01-26T03:36:54.372Z,1.1
2023-01-26T03:38:10.495Z,1.1
2023-01-26T03:39:26.657Z,1.1
2023-01-26T03:40:42.786Z,1.1
2023-01-26T03:41:58.941Z,1.1
2023-01-26T03:43:15.094Z,1.1
2023-01-26T03:44:31.228Z,1.2
2023-01-26T03:45:47.370Z,1.1
2023-01-26T03:48:19.675Z,1.2
2023-01-26T03:49:35.828Z,1.2
2023-01-26T03:50:51.960Z,1.2
2023-01-26T03:52:08.112Z,1.2
2023-01-26T03:53:23.270Z,1.2
2023-01-26T03:54:39.423Z,1.2
2023-01-26T03:55:55.573Z,1.2
2023-01-26T03:57:11.706Z,1.2
2023-01-26T03:58:27.000Z,1.2
2023-01-26T03:59:43.995Z,1.2
2023-01-26T04:01:00.147Z,1.2
2023-01-26T04:02:16.305Z,1.2
2023-01-26T04:03:32.452Z,1.2
2023-01-26T04:04:48.000Z,1.2
2023-01-26T04:06:04.726Z,1.2
2023-01-26T04:07:20.000Z,1.2
2023-01-26T04:08:37.030Z,1.2
2023-01-26T04:09:52.189Z,1.2
2023-01-26T04:11:08.339Z,1.2
2023-01-26T04:12:24.000Z,1.2
2023-01-26T04:13:40.627Z,1.2
2023-01-26T04:14:56.759Z,1.2
2023-01-26T04:16:12.915Z,1.2
2023-01-26T04:17:28.000Z,1.2
2023-01-26T04:18:45.203Z,1.2
2023-01-26T04:20:01.358Z,1.2
2023-01-26T04:21:17.508Z,1.2
2023-01-26T04:22:33.645Z,1.2
2023-01-26T04:23:49.796Z,1.2
2023-01-26T04:25:05.000Z,1.2
2023-01-26T04:26:21.110Z,1.2
2023-01-26T04:27:37.239Z,1.2
2023-01-26T04:30:09.000Z,1.2
2023-01-26T04:31:25.680Z,1.2
2023-01-26T04:32:41.830Z,1.2
2023-01-26T04:33:57.966Z,1.2
2023-01-26T04:35:14.121Z,1.2
2023-01-26T04:36:30.274Z,1.2
2023-01-26T04:39:02.564Z,1.2
2023-01-26T04:40:18.693Z,1.2
2023-01-26T04:41:34.852Z,1.2
2023-01-26T04:42:51.021Z,1.2
2023-01-26T04:44:06.157Z,1.2
2023-01-26T04:45:22.000Z,1.2
2023-01-26T04:46:38.458Z,1.2
2023-01-26T04:47:54.594Z,1.2
2023-01-26T04:49:10.739Z,1.2
2023-01-26T04:50:26.000Z,1.2
2023-01-26T04:51:42.000Z,1.2
2023-01-26T04:52:58.000Z,1.2
2023-01-26T04:54:15.325Z,1.2
2023-01-26T04:55:31.000Z,1.2
2023-01-26T04:56:47.000Z,1.2
2023-01-26T04:58:03.000Z,1.2
2023-01-26T04:59:19.000Z,1.2
2023-01-26T05:00:34.000Z,1.2
2023-01-26T05:01:50.000Z,1.2
2023-01-26T05:03:07.000Z,1.2
2023-01-26T05:04:23.000Z,1.2
2023-01-26T05:05:39.000Z,1.2
2023-01-26T05:06:55.000Z,1.2
2023-01-26T05:08:11.939Z,1.2
2023-01-26T05:09:27.000Z,1.2
2023-01-26T05:10:44.230Z,1.2
2023-01-26T05:12:00.000Z,1.2
2023-01-26T05:13:16.000Z,1.2
2023-01-26T05:14:32.000Z,1.2
2023-01-26T05:15:48.000Z,1.2
2023-01-26T05:17:03.987Z,1.2
2023-01-26T05:18:19.000Z,1.2
2023-01-26T05:19:36.272Z,1.2
2023-01-26T05:20:52.000Z,1.2
2023-01-26T05:22:08.000Z,1.2
2023-01-26T05:23:23.724Z,1.2
2023-01-26T05:24:39.874Z,1.2
2023-01-26T05:25:55.000Z,1.2
2023-01-26T05:27:11.000Z,1.3
2023-01-26T05:28:28.000Z,1.2
2023-01-26T05:29:44.000Z,1.2
2023-01-26T05:31:00.000Z,1.2
2023-01-26T05:32:16.749Z,1.2
2023-01-26T05:33:32.000Z,1.2
2023-01-26T05:34:49.034Z,1.3
2023-01-26T05:36:04.000Z,1.3
2023-01-26T05:37:21.000Z,1.3
2023-01-26T05:38:37.000Z,1.3
2023-01-26T05:39:52.000Z,1.3
2023-01-26T05:41:08.000Z,1.3
2023-01-26T05:42:24.000Z,1.3
2023-01-26T05:43:40.000Z,1.3
2023-01-26T05:44:57.289Z,1.3
2023-01-26T05:46:13.000Z,1.3
2023-01-26T05:47:29.520Z,1.3
2023-01-26T05:48:45.000Z,1.3
2023-01-26T05:50:01.000Z,1.3
2023-01-26T05:51:17.000Z,1.3
2023-01-26T05:52:33.000Z,1.3
2023-01-26T05:53:50.245Z,1.3
2023-01-26T05:55:06.000Z,1.3
2023-01-26T05:56:21.000Z,1.3
2023-01-26T05:57:37.000Z,1.3
2023-01-26T05:58:53.000Z,1.3
2023-01-26T06:00:09.000Z,1.3
2023-01-26T06:01:25.000Z,1.3
2023-01-26T06:02:42.277Z,1.3
2023-01-26T06:03:58.000Z,1.3
2023-01-26T06:05:14.000Z,1.3
2023-01-26T06:06:30.000Z,1.3
2023-01-26T06:07:46.866Z,1.3
2023-01-26T06:09:02.000Z,1.3
2023-01-26T06:10:19.152Z,1.3
2023-01-26T06:11:35.000Z,1.3
2023-01-26T06:12:50.480Z,1.4
2023-01-26T06:14:06.000Z,1.4
2023-01-26T06:15:22.000Z,1.4
2023-01-26T06:16:38.000Z,1.4
2023-01-26T06:17:54.000Z,1.4
2023-01-26T06:19:10.000Z,1.4
2023-01-26T06:20:27.000Z,1.4
2023-01-26T06:21:43.000Z,1.4
2023-01-26T06:22:59.631Z,1.4
2023-01-26T06:24:15.000Z,1.4
2023-01-26T06:25:31.000Z,1.4
2023-01-26T06:26:47.000Z,1.4
2023-01-26T06:28:03.000Z,1.4
2023-01-26T06:29:19.000Z,1.4
2023-01-26T06:30:35.000Z,1.4
2023-01-26T06:31:51.000Z,1.4
2023-01-26T06:33:07.817Z,1.4
2023-01-26T06:34:23.000Z,1.4
2023-01-26T06:35:39.000Z,1.5
2023-01-26T06:36:56.000Z,1.5
2023-01-26T06:38:12.399Z,1.5
2023-01-26T06:39:28.000Z,1.5
2023-01-26T06:40:44.716Z,1.5
2023-01-26T06:42:00.000Z,1.5
2023-01-26T06:43:16.000Z,1.5
2023-01-26T06:44:32.000Z,1.5
2023-01-26T06:45:48.307Z,1.5
2023-01-26T06:47:04.000Z,1.5
2023-01-26T06:48:20.601Z,1.5
2023-01-26T06:49:36.000Z,1.5
2023-01-26T06:50:52.000Z,1.5
2023-01-26T06:52:08.000Z,1.5
2023-01-26T06:53:24.000Z,1.5
2023-01-26T06:54:41.309Z,1.5
2023-01-26T06:55:57.000Z,1.5
2023-01-26T06:57:13.000Z,1.5
2023-01-26T06:58:29.000Z,1.5
2023-01-26T06:59:45.899Z,1.5
2023-01-26T07:01:01.000Z,1.5
2023-01-26T07:02:17.202Z,1.5
2023-01-26T07:03:33.000Z,1.5
2023-01-26T07:04:49.000Z,1.5
2023-01-26T07:06:05.000Z,1.5
2023-01-26T07:07:21.784Z,1.5
2023-01-26T07:08:37.000Z,1.5
2023-01-26T07:09:54.070Z,1.5
2023-01-26T07:11:09.000Z,1.5
2023-01-26T07:12:26.000Z,1.5
2023-01-26T07:13:42.000Z,1.5
2023-01-26T07:14:58.000Z,1.5
2023-01-26T07:16:14.000Z,1.5
2023-01-26T07:17:30.000Z,1.5
2023-01-26T07:18:45.000Z,1.5
2023-01-26T07:20:02.000Z,1.5
2023-01-26T07:21:18.000Z,1.6
2023-01-26T07:22:34.000Z,1.6
2023-01-26T07:23:50.697Z,1.6
2023-01-26T07:25:06.000Z,1.6
2023-01-26T07:26:22.000Z,1.6
2023-01-26T07:27:38.000Z,1.6
2023-01-26T07:28:55.000Z,1.6
2023-01-26T07:30:11.428Z,1.6
2023-01-26T07:31:27.000Z,1.6
2023-01-26T07:32:43.000Z,1.7
2023-01-26T07:33:59.000Z,1.7
2023-01-26T07:35:14.000Z,1.7
2023-01-26T07:36:31.168Z,1.7
2023-01-26T07:37:47.000Z,1.7
2023-01-26T07:39:03.000Z,1.7
2023-01-26T07:40:19.000Z,1.7
2023-01-26T07:41:35.000Z,1.7
2023-01-26T07:42:51.000Z,1.7
2023-01-26T07:44:07.000Z,1.7
2023-01-26T07:45:23.000Z,1.7
2023-01-26T07:46:40.000Z,1.7
2023-01-26T07:47:56.000Z,1.7
2023-01-26T07:49:12.630Z,1.7
2023-01-26T07:50:28.000Z,1.7
2023-01-26T07:51:43.946Z,1.7
2023-01-26T07:52:59.000Z,1.7
2023-01-26T07:54:16.000Z,1.7
2023-01-26T07:55:32.000Z,1.7
2023-01-26T07:56:48.000Z,1.7
2023-01-26T07:58:04.000Z,1.7
2023-01-26T07:59:20.000Z,1.7
2023-01-26T08:00:36.000Z,1.7
2023-01-26T08:01:52.000Z,1.7
2023-01-26T08:03:09.000Z,1.7
2023-01-26T08:04:25.000Z,1.7
2023-01-26T08:05:41.000Z,1.8
2023-01-26T08:06:57.000Z,1.8
2023-01-26T08:08:12.000Z,1.8
2023-01-26T08:09:28.000Z,1.8
2023-01-26T08:10:44.000Z,1.8
2023-01-26T08:12:01.000Z,1.8
2023-01-26T08:13:17.000Z,1.8
2023-01-26T08:14:33.000Z,1.8
2023-01-26T08:15:49.000Z,1.8
2023-01-26T08:17:05.000Z,1.9
2023-01-26T08:18:21.000Z,1.9
2023-01-26T08:19:38.157Z,1.9
2023-01-26T08:20:54.311Z,1.9
2023-01-26T08:22:10.000Z,1.9
2023-01-26T08:23:26.000Z,2
2023-01-26T08:24:41.000Z,2
2023-01-26T08:25:57.000Z,2
2023-01-26T08:27:14.051Z,2
2023-01-26T08:28:29.000Z,2
2023-01-26T08:29:46.000Z,2
2023-01-26T08:31:02.000Z,2.1
2023-01-26T08:32:18.650Z,2.1
2023-01-26T08:33:34.000Z,2.1
2023-01-26T08:34:50.000Z,2.1
2023-01-26T08:36:06.000Z,2.1
2023-01-26T08:37:22.000Z,2.2
2023-01-26T08:38:39.000Z,2.2
2023-01-26T08:39:55.508Z,2.2
2023-01-26T08:41:10.000Z,2.2
2023-01-26T08:42:26.817Z,2.3
2023-01-26T08:43:42.000Z,2.3
2023-01-26T08:44:58.000Z,2.3
2023-01-26T08:46:15.311Z,2.3
2023-01-26T08:47:31.000Z,2.3
2023-01-26T08:48:47.000Z,2.3
2023-01-26T08:50:03.000Z,2.4
2023-01-26T08:51:19.000Z,2.4
2023-01-26T08:52:35.000Z,2.3
2023-01-26T08:53:51.000Z,2.3
2023-01-26T08:55:08.000Z,2.3
2023-01-26T08:56:24.427Z,2.3
2023-01-26T08:57:39.000Z,2.3
2023-01-26T08:58:55.000Z,2.3
2023-01-26T09:00:11.000Z,2.3
2023-01-26T09:01:27.000Z,2.3
2023-01-26T09:02:43.000Z,2.3
2023-01-26T09:04:00.000Z,2.2
2023-01-26T09:05:16.000Z,2.2
2023-01-26T09:06:32.000Z,2.3
2023-01-26T09:07:48.000Z,2.3
2023-01-26T09:09:04.902Z,2.3
2023-01-26T09:10:21.038Z,2.3
2023-01-26T09:11:36.000Z,2.3
2023-01-26T09:12:53.000Z,2.3
2023-01-26T09:14:08.498Z,2.3
2023-01-26T09:15:24.000Z,2.3
2023-01-26T09:16:40.000Z,2.3
2023-01-26T09:17:56.000Z,2.3
2023-01-26T09:19:12.000Z,2.3
2023-01-26T09:20:28.000Z,2.3
2023-01-26T09:21:45.375Z,2.4
2023-01-26T09:23:01.000Z,2.4
2023-01-26T09:24:17.000Z,2.4
2023-01-26T09:25:33.000Z,2.4
2023-01-26T09:26:49.000Z,2.4
2023-01-26T09:28:06.100Z,2.5
2023-01-26T09:29:22.000Z,2.5
2023-01-26T09:30:37.000Z,2.6
2023-01-26T09:31:53.000Z,2.6
2023-01-26T09:33:09.000Z,2.7
2023-01-26T09:34:25.000Z,2.7
2023-01-26T09:35:41.000Z,2.8
2023-01-26T09:36:57.000Z,2.8
2023-01-26T09:38:13.000Z,2.9
2023-01-26T09:39:29.462Z,2.9
2023-01-26T09:40:45.000Z,3
2023-01-26T09:42:01.000Z,3
2023-01-26T09:43:17.000Z,3
2023-01-26T09:44:33.000Z,3.1
2023-01-26T09:45:49.000Z,3.1
2023-01-26T09:47:06.000Z,3.1
2023-01-26T09:48:22.000Z,3.2
2023-01-26T09:49:38.000Z,3.2
2023-01-26T09:50:54.000Z,3.3
2023-01-26T09:52:10.000Z,3.3
2023-01-26T09:53:26.000Z,3.4
2023-01-26T09:54:42.000Z,3.4
2023-01-26T09:55:58.000Z,3.4
2023-01-26T09:57:14.000Z,3.5
2023-01-26T09:58:30.000Z,3.5
2023-01-26T09:59:46.000Z,3.5
2023-01-26T10:01:03.074Z,3.6
2023-01-26T10:02:18.000Z,3.6
2023-01-26T10:03:35.000Z,3.7
2023-01-26T10:04:51.000Z,3.8
2023-01-26T10:06:07.000Z,3.8
2023-01-26T10:07:23.000Z,3.8
2023-01-26T10:08:39.000Z,3.9
2023-01-26T10:09:56.010Z,3.9
2023-01-26T10:11:10.000Z,3.9
2023-01-26T10:12:27.000Z,4
2023-01-26T10:13:43.000Z,4
2023-01-26T10:14:59.000Z,4.1
2023-01-26T10:16:15.000Z,4.1
2023-01-26T10:17:31.000Z,4.2
2023-01-26T10:18:48.106Z,4.2
2023-01-26T10:20:03.000Z,4.2
2023-01-26T10:21:20.349Z,4.3
2023-01-26T10:22:36.000Z,4.3
2023-01-26T10:23:52.000Z,4.3
2023-01-26T10:25:08.000Z,4.3
2023-01-26T10:26:24.000Z,4.3
2023-01-26T10:27:39.000Z,4.3
2023-01-26T10:28:56.000Z,4.3
2023-01-26T10:30:12.000Z,4.3
2023-01-26T10:31:28.540Z,4.4
2023-01-26T10:32:44.000Z,4.3
2023-01-26T10:34:00.000Z,4.3
2023-01-26T10:35:16.978Z,4.3
2023-01-26T10:36:32.000Z,4.3
2023-01-26T10:37:49.000Z,4.4
2023-01-26T10:39:05.000Z,4.4
2023-01-26T10:40:21.000Z,4.4
2023-01-26T10:41:37.000Z,4.5
2023-01-26T10:42:53.864Z,4.6
2023-01-26T10:44:08.000Z,4.6
2023-01-26T10:45:24.000Z,4.6
2023-01-26T10:46:41.000Z,4.7
2023-01-26T10:47:57.000Z,4.7
2023-01-26T10:49:13.000Z,4.7
2023-01-26T10:50:29.000Z,4.8
2023-01-26T10:51:45.915Z,4.8
2023-01-26T10:53:01.000Z,4.8
2023-01-26T10:54:17.000Z,4.8
2023-01-26T10:55:34.000Z,4.9
2023-01-26T10:56:50.000Z,4.9
2023-01-26T10:58:06.000Z,4.9
2023-01-26T10:59:22.000Z,4.9
2023-01-26T11:00:37.000Z,4.9
2023-01-26T11:01:54.101Z,5
2023-01-26T11:03:10.244Z,5
2023-01-26T11:04:26.000Z,5
2023-01-26T11:05:42.000Z,5
2023-01-26T11:06:58.000Z,5
2023-01-26T11:08:14.000Z,5.1
2023-01-26T11:09:30.000Z,5.1
2023-01-26T11:10:46.000Z,5.1
2023-01-26T11:12:03.000Z,5.1
2023-01-26T11:13:19.000Z,5.1
2023-01-26T11:14:35.000Z,5.2
2023-01-26T11:15:51.709Z,5.2
2023-01-26T11:17:06.000Z,5.3
2023-01-26T11:18:22.000Z,5.3
2023-01-26T11:19:38.000Z,5.4
2023-01-26T11:20:55.315Z,5.4
2023-01-26T11:22:11.000Z,5.4
2023-01-26T11:23:27.000Z,5.5
2023-01-26T11:24:43.000Z,5.5
2023-01-26T11:25:59.000Z,5.6
2023-01-26T11:27:15.000Z,5.6
2023-01-26T11:28:32.197Z,5.7
2023-01-26T11:29:48.339Z,5.7
2023-01-26T11:31:04.000Z,5.8
2023-01-26T11:32:20.000Z,5.8
2023-01-26T11:33:35.000Z,5.8
2023-01-26T11:34:51.000Z,5.8
2023-01-26T11:36:07.000Z,5.8
2023-01-26T11:37:24.000Z,5.9
2023-01-26T11:38:40.388Z,5.9
2023-01-26T11:39:56.000Z,5.9
2023-01-26T11:41:12.000Z,5.9
2023-01-26T11:42:28.000Z,6
2023-01-26T11:43:44.000Z,6
2023-01-26T11:45:00.000Z,6
2023-01-26T11:46:17.000Z,6
2023-01-26T11:47:33.415Z,6
2023-01-26T11:48:49.000Z,6
2023-01-26T11:50:04.732Z,6.1
2023-01-26T11:51:20.000Z,6.1
2023-01-26T11:52:36.000Z,6.2
2023-01-26T11:53:52.000Z,6.2
2023-01-26T11:55:09.317Z,6.3
2023-01-26T11:56:25.000Z,6.3
2023-01-26T11:57:41.000Z,6.4
2023-01-26T11:58:57.000Z,6.5
2023-01-26T12:00:13.905Z,6.5
2023-01-26T12:01:29.000Z,6.5
2023-01-26T12:02:45.000Z,6.6
2023-01-26T12:04:02.000Z,6.6
2023-01-26T12:05:18.487Z,6.6
2023-01-26T12:06:33.647Z,6.6
2023-01-26T12:07:49.000Z,6.6
2023-01-26T12:09:05.000Z,6.7
2023-01-26T12:10:21.000Z,6.7
2023-01-26T12:11:38.000Z,6.7
2023-01-26T12:12:54.000Z,6.6
2023-01-26T12:14:10.528Z,6.6
2023-01-26T12:15:26.000Z,6.6
2023-01-26T12:16:42.000Z,6.6
2023-01-26T12:17:58.000Z,6.6
2023-01-26T12:19:14.000Z,6.7
2023-01-26T12:20:31.000Z,6.7
2023-01-26T12:21:47.000Z,6.7
2023-01-26T12:23:02.598Z,6.7
2023-01-26T12:24:18.000Z,6.6
2023-01-26T12:25:34.000Z,6.6
2023-01-26T12:26:50.000Z,6.7
2023-01-26T12:28:06.000Z,6.7
2023-01-26T12:29:23.000Z,6.6
2023-01-26T12:30:39.000Z,6.6
2023-01-26T12:31:55.000Z,6.6
2023-01-26T12:33:11.000Z,6.7
2023-01-26T12:34:27.000Z,6.7
2023-01-26T12:35:44.046Z,6.7
2023-01-26T12:36:59.000Z,6.7
2023-01-26T12:38:16.000Z,6.7
2023-01-26T12:39:31.506Z,6.7
2023-01-26T12:40:47.651Z,6.8
2023-01-26T12:42:03.000Z,6.8
2023-01-26T12:43:19.000Z,7
2023-01-26T12:44:35.000Z,7.2
2023-01-26T12:45:52.000Z,7.2
2023-01-26T12:47:08.000Z,7.2
2023-01-26T12:48:24.000Z,7.2
2023-01-26T12:49:40.000Z,7.3
2023-01-26T12:50:56.000Z,7.3
2023-01-26T12:52:12.975Z,7.3
2023-01-26T12:53:28.000Z,7.2
2023-01-26T12:54:45.000Z,7.2
2023-01-26T12:56:00.000Z,7.2
2023-01-26T12:57:16.576Z,7.4
2023-01-26T12:58:32.000Z,7.3
2023-01-26T12:59:48.000Z,7.3
2023-01-26T13:01:04.000Z,7.2
2023-01-26T13:02:20.000Z,7.2
2023-01-26T13:03:37.000Z,7.1
2023-01-26T13:04:53.458Z,7.1
2023-01-26T13:06:09.000Z,7.1
2023-01-26T13:07:25.000Z,7.1
2023-01-26T13:08:41.000Z,7.1
2023-01-26T13:09:57.000Z,7.1
2023-01-26T13:11:13.000Z,7.1
2023-01-26T13:12:29.000Z,7.1
2023-01-26T13:13:45.000Z,7.1
2023-01-26T13:15:01.000Z,7.1
2023-01-26T13:16:17.000Z,7
2023-01-26T13:17:33.000Z,7
2023-01-26T13:18:49.000Z,6.9
2023-01-26T13:20:06.000Z,6.9
2023-01-26T13:21:22.000Z,6.8
2023-01-26T13:22:38.000Z,6.8
2023-01-26T13:23:54.673Z,6.8
2023-01-26T13:25:10.000Z,6.8
2023-01-26T13:26:26.970Z,6.8
2023-01-26T13:27:43.125Z,6.8
2023-01-26T13:28:58.000Z,6.8
2023-01-26T13:30:14.000Z,6.8
2023-01-26T13:31:30.000Z,6.8
2023-01-26T13:32:46.719Z,6.8
2023-01-26T13:34:02.000Z,6.8
2023-01-26T13:35:18.000Z,6.8
2023-01-26T13:36:34.000Z,6.8
2023-01-26T13:37:51.000Z,6.8
2023-01-26T13:39:07.000Z,6.8
2023-01-26T13:40:23.000Z,6.8
2023-01-26T13:41:39.000Z,6.8
2023-01-26T13:42:55.000Z,6.9
2023-01-26T13:44:11.000Z,6.9
2023-01-26T13:45:27.206Z,6.9
2023-01-26T13:46:43.000Z,6.8
2023-01-26T13:47:59.000Z,6.8
2023-01-26T13:49:15.000Z,6.8
2023-01-26T13:50:31.000Z,6.7
2023-01-26T13:51:47.944Z,6.7
2023-01-26T13:53:02.000Z,6.7
2023-01-26T13:54:19.000Z,6.7
2023-01-26T13:55:35.000Z,6.6
2023-01-26T13:56:51.000Z,6.6
2023-01-26T13:58:07.000Z,6.6
2023-01-26T13:59:23.000Z,6.6
2023-01-26T14:00:39.000Z,6.6
2023-01-26T14:01:55.000Z,6.6
2023-01-26T14:03:12.289Z,6.6
2023-01-26T14:04:28.000Z,6.7
2023-01-26T14:05:44.000Z,6.6
2023-01-26T14:07:00.000Z,6.6
2023-01-26T14:08:16.871Z,6.6
2023-01-26T14:09:31.000Z,6.6
2023-01-26T14:10:47.000Z,6.6
2023-01-26T14:12:04.000Z,6.6
2023-01-26T14:13:20.000Z,6.6
2023-01-26T14:14:36.000Z,6.6
2023-01-26T14:15:52.773Z,6.5
2023-01-26T14:17:08.000Z,6.5
2023-01-26T14:18:24.000Z,6.4
2023-01-26T14:19:40.000Z,6.4
2023-01-26T14:20:57.000Z,6.4
2023-01-26T14:22:13.000Z,6.4
2023-01-26T14:23:29.000Z,6.3
2023-01-26T14:24:45.000Z,6.2
2023-01-26T14:26:00.962Z,6.1
2023-01-26T14:27:16.000Z,6
2023-01-26T14:28:33.000Z,6
2023-01-26T14:29:49.000Z,5.9
2023-01-26T14:31:05.000Z,5.8
2023-01-26T14:32:21.000Z,5.7
2023-01-26T14:33:37.000Z,5.7
2023-01-26T14:34:53.000Z,5.6
2023-01-26T14:36:09.000Z,5.6
2023-01-26T14:37:26.000Z,5.5
2023-01-26T14:38:42.000Z,5.4
2023-01-26T14:39:58.000Z,5.3
2023-01-26T14:41:14.000Z,5.3
2023-01-26T14:42:29.889Z,5.2
2023-01-26T14:43:45.000Z,5.2
2023-01-26T14:45:01.000Z,5.1
2023-01-26T14:46:18.000Z,5.1
2023-01-26T14:47:34.000Z,5
2023-01-26T14:48:50.000Z,5
2023-01-26T14:50:06.782Z,4.9
2023-01-26T14:51:22.000Z,4.9
2023-01-26T14:52:39.072Z,4.9
2023-01-26T14:53:54.000Z,4.8
2023-01-26T14:55:11.000Z,4.8
2023-01-26T14:56:27.000Z,4.7
2023-01-26T14:57:43.000Z,4.7
2023-01-26T14:58:58.000Z,4.6
2023-01-26T15:00:14.000Z,4.6
2023-01-26T15:01:30.000Z,4.5
2023-01-26T15:02:47.272Z,4.5
2023-01-26T15:04:03.000Z,4.4
2023-01-26T15:05:19.000Z,4.4
2023-01-26T15:06:35.000Z,4.3
2023-01-26T15:07:51.844Z,4.3
2023-01-26T15:09:07.000Z,4.2
2023-01-26T15:10:23.000Z,4.2
2023-01-26T15:11:40.000Z,4.1
2023-01-26T15:12:56.000Z,4.1
2023-01-26T15:14:12.000Z,4
2023-01-26T15:15:27.000Z,4
2023-01-26T15:16:43.895Z,4
2023-01-26T15:18:00.057Z,3.9
2023-01-26T15:19:15.000Z,3.9
2023-01-26T15:20:32.000Z,3.8
2023-01-26T15:21:48.000Z,3.8
2023-01-26T15:23:04.000Z,3.7
2023-01-26T15:24:20.774Z,3.7
2023-01-26T15:25:36.000Z,3.6
2023-01-26T15:26:52.000Z,3.6
2023-01-26T15:28:08.000Z,3.5
2023-01-26T15:29:25.000Z,3.5
2023-01-26T15:30:41.000Z,3.4
2023-01-26T15:31:56.000Z,3.4
2023-01-26T15:33:12.819Z,3.3
2023-01-26T15:34:28.000Z,3.3
2023-01-26T15:35:44.000Z,3.3
2023-01-26T15:37:01.000Z,3.3
2023-01-26T15:38:17.000Z,3.3
2023-01-26T15:39:33.000Z,3.2
2023-01-26T15:40:49.699Z,3.2
2023-01-26T15:42:05.000Z,3.2
2023-01-26T15:43:21.000Z,3.2
2023-01-26T15:44:37.000Z,3.1
2023-01-26T15:45:54.000Z,3.1
2023-01-26T15:47:10.443Z,3
2023-01-26T15:48:25.614Z,3
2023-01-26T15:49:41.000Z,3
2023-01-26T15:50:57.897Z,2.9
2023-01-26T15:52:14.059Z,2.9
2023-01-26T15:53:29.000Z,2.8
2023-01-26T15:54:46.000Z,2.8
2023-01-26T15:56:02.482Z,2.8
2023-01-26T15:57:18.000Z,2.8
2023-01-26T15:58:34.000Z,2.7
2023-01-26T15:59:50.000Z,2.7
2023-01-26T16:01:06.000Z,2.7
2023-01-26T16:02:22.000Z,2.7
2023-01-26T16:03:39.000Z,2.7
2023-01-26T16:04:54.000Z,2.7
2023-01-26T16:06:10.000Z,2.7
2023-01-26T16:07:26.000Z,2.8
2023-01-26T16:08:42.979Z,2.8
2023-01-26T16:09:58.000Z,2.8
2023-01-26T16:11:15.000Z,2.9
2023-01-26T16:12:31.420Z,2.9
2023-01-26T16:13:47.000Z,3
2023-01-26T16:15:03.000Z,3.1
2023-01-26T16:16:19.000Z,3.1
2023-01-26T16:17:35.000Z,3.2
2023-01-26T16:18:51.000Z,3.2
2023-01-26T16:20:08.000Z,3.3
2023-01-26T16:21:23.000Z,3.4
2023-01-26T16:22:39.000Z,3.4
2023-01-26T16:23:55.000Z,3.5
2023-01-26T16:25:11.927Z,3.5
2023-01-26T16:26:27.000Z,3.6
2023-01-26T16:27:43.000Z,3.6
2023-01-26T16:29:00.000Z,3.6
2023-01-26T16:30:16.000Z,3.6
2023-01-26T16:31:32.000Z,3.6
2023-01-26T16:32:48.000Z,3.6
2023-01-26T16:34:04.000Z,3.6
2023-01-26T16:35:20.000Z,3.7
2023-01-26T16:36:37.000Z,3.7
2023-01-26T16:37:52.395Z,3.7
2023-01-26T16:39:08.000Z,3.8
2023-01-26T16:40:24.000Z,3.8
2023-01-26T16:41:40.000Z,3.8
2023-01-26T16:42:56.987Z,3.8
2023-01-26T16:44:13.140Z,3.8
2023-01-26T16:45:29.000Z,3.8
2023-01-26T16:46:45.000Z,3.8
2023-01-26T16:48:01.000Z,3.8
2023-01-26T16:49:17.000Z,3.8
2023-01-26T16:50:33.862Z,3.8
2023-01-26T16:51:49.000Z,3.8
2023-01-26T16:53:05.000Z,3.8
2023-01-26T16:54:21.000Z,3.8
2023-01-26T16:55:37.000Z,3.9
2023-01-26T16:56:53.000Z,3.9
2023-01-26T16:58:09.764Z,3.9
2023-01-26T16:59:25.915Z,3.9
2023-01-26T17:00:41.000Z,4
2023-01-26T17:01:57.000Z,4
2023-01-26T17:03:14.000Z,4
2023-01-26T17:04:30.000Z,4.1
2023-01-26T17:05:46.647Z,4.1
2023-01-26T17:07:02.000Z,4.1
2023-01-26T17:08:18.000Z,4.1
2023-01-26T17:09:34.000Z,4.1
2023-01-26T17:10:50.000Z,4.1
2023-01-26T17:12:06.000Z,4.1
2023-01-26T17:13:22.000Z,4.2
2023-01-26T17:14:38.000Z,4.2
2023-01-26T17:15:54.842Z,4.2
2023-01-26T17:17:10.000Z,4.2
2023-01-26T17:18:26.000Z,4.2
2023-01-26T17:19:43.000Z,4.3
2023-01-26T17:20:59.000Z,4.4
2023-01-26T17:22:15.000Z,4.4
2023-01-26T17:23:31.725Z,4.5
2023-01-26T17:24:47.000Z,4.5
2023-01-26T17:26:03.000Z,4.6
2023-01-26T17:27:18.000Z,4.6
2023-01-26T17:28:35.000Z,4.7
2023-01-26T17:29:51.000Z,4.7
2023-01-26T17:31:07.000Z,4.8
2023-01-26T17:32:23.773Z,4.8
2023-01-26T17:33:40.122Z,4.8
2023-01-26T17:34:55.000Z,4.9
2023-01-26T17:36:11.000Z,4.9
2023-01-26T17:37:28.000Z,4.9
2023-01-26T17:38:44.511Z,4.9
2023-01-26T17:40:00.000Z,5